Miami, IN (46959)

11:38 PM EDT on August 20, 2014 (GMT -0400)
southern cass co. | Change Station
CLOSE
Current Station
Personal Weather Station
Location: Galveston, IN
Elevation: 778 ft
Nearby Weather Stations

Elev 778 ft 40.60 °N, 86.19 °W | Updated 24 seconds ago

Clear
Clear
69.1 °F
Feels Like 69.1 °F
N
0.0
Wind Variable Wind from WNW
Gusts 0.0 mph

Today
High -- | Low -- °F
--% Chance of Precip.
Yesterday
High -- | Low -- °F
Precip. -- in
6:59 AM 8:35 PM
Waning Crescent, 17% visible
Pressure 29.99 in
Visibility 10.0 miles
Clouds Clear
Dew Point 69 °F
Humidity 99%
Rainfall 0.00 in
Snow Depth Not available.
UV 0 out of 12
Pollen 9.80 out of 12
Air Quality Not available.
Flu Activity Not available.
METAR KGUS 210258Z AUTO 21006KT 10SM CLR 21/21 A2999 RMK AO2 SLP154 T02120212 52025

More Conditions Fewer Conditions

Pressure 29.99 in
Visibility 10.0 miles
Clouds Clear
Dew Point 69 °F
Humidity 99%
Rainfall 0.00 in
Snow Depth Not available.
UV 0 out of 12
Pollen 9.80 out of 12
Air Quality Not available.
Flu Activity Not available.
METAR KGUS 210258Z AUTO 21006KT 10SM CLR 21/21 A2999 RMK AO2 SLP154 T02120212 52025

More Conditions Fewer Conditions

10-Day Weather Forecast

Almanac

Astronomy

Aug. 20, 2014 Rise Set
Actual Time 6:59 AM EDT 8:35 PM EDT
Civil Twilight 6:30 AM EDT 9:03 PM EDT
Nautical Twilight 5:55 AM EDT 9:38 PM EDT
Astronomical Twilight 5:18 AM EDT 10:15 PM EDT
Moon 2:38 AM EDT (8/20) 5:20 PM EDT (8/20)
Length of Visible Light 14h 32m
Length of Day
13h 35m
Tomorrow will be 2m 27s shorter.
Waning Crescent, 17% of the Moon is Illuminated
Today
Waning Crescent
Aug 25
New
Sep 2
First Quarter
Sep 8
Full
Sep 15
Last Quarter

Today's Extremes

State Highs State Lows

Community

WunderPhotos

Upload Photos

1,745,850 photos uploaded!

Nearby

Snow Depth

Station Depth Elevation
No new snow has been reported.

Earthquake Activity

City Distance Mag. Time & Date
No recent earthquake activity has been reported nearby.
Minimum magnitude displayed is 2.5.

Coastal Water Temperatures

Place Temperature
No Stations Reporting

Nearby Weather Stations